sensor_id;sensor_type;location;lat;lon;timestamp;temperature;humidity
20483;DHT22;10400;53.198;6.592;2023-05-07T00:01:59;12.80;99.90
20483;DHT22;10400;53.198;6.592;2023-05-07T00:04:24;12.90;99.90
20483;DHT22;10400;53.198;6.592;2023-05-07T00:06:50;12.90;99.90
20483;DHT22;10400;53.198;6.592;2023-05-07T00:09:16;12.90;99.90
20483;DHT22;10400;53.198;6.592;2023-05-07T00:11:44;12.80;99.90
20483;DHT22;10400;53.198;6.592;2023-05-07T00:14:09;12.80;99.90
20483;DHT22;10400;53.198;6.592;2023-05-07T00:16:35;12.80;99.90
20483;DHT22;10400;53.198;6.592;2023-05-07T00:19:01;12.70;99.90
20483;DHT22;10400;53.198;6.592;2023-05-07T00:21:35;12.70;99.90
20483;DHT22;10400;53.198;6.592;2023-05-07T00:24:01;12.80;99.90
20483;DHT22;10400;53.198;6.592;2023-05-07T00:26:26;12.80;99.90
20483;DHT22;10400;53.198;6.592;2023-05-07T00:28:52;12.70;99.90
20483;DHT22;10400;53.198;6.592;2023-05-07T00:31:18;12.60;99.90
20483;DHT22;10400;53.198;6.592;2023-05-07T00:33:43;12.60;99.90
20483;DHT22;10400;53.198;6.592;2023-05-07T00:36:09;12.70;99.90
20483;DHT22;10400;53.198;6.592;2023-05-07T00:38:35;12.60;99.90
20483;DHT22;10400;53.198;6.592;2023-05-07T00:41:03;12.60;99.90
20483;DHT22;10400;53.198;6.592;2023-05-07T00:43:29;12.60;99.90
20483;DHT22;10400;53.198;6.592;2023-05-07T00:45:55;12.60;99.90
20483;DHT22;10400;53.198;6.592;2023-05-07T00:48:21;12.60;99.90
20483;DHT22;10400;53.198;6.592;2023-05-07T00:50:47;12.60;99.90
20483;DHT22;10400;53.198;6.592;2023-05-07T00:53:14;12.60;99.90
20483;DHT22;10400;53.198;6.592;2023-05-07T00:55:42;12.60;99.90
20483;DHT22;10400;53.198;6.592;2023-05-07T00:58:08;12.50;99.90
20483;DHT22;10400;53.198;6.592;2023-05-07T01:00:37;12.60;99.90
20483;DHT22;10400;53.198;6.592;2023-05-07T01:03:03;12.50;99.90
20483;DHT22;10400;53.198;6.592;2023-05-07T01:05:48;12.50;99.90
20483;DHT22;10400;53.198;6.592;2023-05-07T01:19:19;12.40;99.90
20483;DHT22;10400;53.198;6.592;2023-05-07T01:38:54;12.30;99.90
20483;DHT22;10400;53.198;6.592;2023-05-07T01:41:23;12.40;99.90
20483;DHT22;10400;53.198;6.592;2023-05-07T01:43:50;12.30;99.90
20483;DHT22;10400;53.198;6.592;2023-05-07T01:46:17;12.30;99.90
20483;DHT22;10400;53.198;6.592;2023-05-07T01:48:44;12.30;99.90
20483;DHT22;10400;53.198;6.592;2023-05-07T01:51:11;12.20;99.90
20483;DHT22;10400;53.198;6.592;2023-05-07T01:53:38;12.20;99.90
20483;DHT22;10400;53.198;6.592;2023-05-07T01:56:05;12.20;99.90
20483;DHT22;10400;53.198;6.592;2023-05-07T01:58:31;12.20;99.90
20483;DHT22;10400;53.198;6.592;2023-05-07T02:00:56;12.10;99.90
20483;DHT22;10400;53.198;6.592;2023-05-07T02:03:22;12.10;99.90
20483;DHT22;10400;53.198;6.592;2023-05-07T02:05:48;12.10;99.90
20483;DHT22;10400;53.198;6.592;2023-05-07T02:08:13;12.10;99.90
20483;DHT22;10400;53.198;6.592;2023-05-07T02:10:39;12.10;99.90
20483;DHT22;10400;53.198;6.592;2023-05-07T02:13:05;12.10;99.90
20483;DHT22;10400;53.198;6.592;2023-05-07T02:15:30;12.10;99.90
20483;DHT22;10400;53.198;6.592;2023-05-07T02:18:04;12.10;99.90
20483;DHT22;10400;53.198;6.592;2023-05-07T02:20:31;12.10;99.90
20483;DHT22;10400;53.198;6.592;2023-05-07T02:22:57;12.10;99.90
20483;DHT22;10400;53.198;6.592;2023-05-07T02:25:22;12.00;99.90
20483;DHT22;10400;53.198;6.592;2023-05-07T02:27:48;12.00;99.90
20483;DHT22;10400;53.198;6.592;2023-05-07T02:30:14;12.00;99.90
20483;DHT22;10400;53.198;6.592;2023-05-07T02:32:40;12.00;99.90
20483;DHT22;10400;53.198;6.592;2023-05-07T02:35:06;12.00;99.90
20483;DHT22;10400;53.198;6.592;2023-05-07T02:37:31;12.00;99.90
20483;DHT22;10400;53.198;6.592;2023-05-07T02:39:57;12.00;99.90
20483;DHT22;10400;53.198;6.592;2023-05-07T02:42:23;12.00;99.90
20483;DHT22;10400;53.198;6.592;2023-05-07T02:44:48;12.00;99.90
20483;DHT22;10400;53.198;6.592;2023-05-07T02:47:15;12.00;99.90
20483;DHT22;10400;53.198;6.592;2023-05-07T02:49:41;12.00;99.90
20483;DHT22;10400;53.198;6.592;2023-05-07T02:52:07;12.00;99.90
20483;DHT22;10400;53.198;6.592;2023-05-07T02:54:32;12.00;99.90
20483;DHT22;10400;53.198;6.592;2023-05-07T02:56:58;12.00;99.90
20483;DHT22;10400;53.198;6.592;2023-05-07T02:59:24;12.00;99.90
20483;DHT22;10400;53.198;6.592;2023-05-07T03:01:51;12.00;99.90
20483;DHT22;10400;53.198;6.592;2023-05-07T03:04:17;12.00;99.90
20483;DHT22;10400;53.198;6.592;2023-05-07T03:06:42;12.00;99.90
20483;DHT22;10400;53.198;6.592;2023-05-07T03:09:08;12.00;99.90
20483;DHT22;10400;53.198;6.592;2023-05-07T03:11:34;11.90;99.90
20483;DHT22;10400;53.198;6.592;2023-05-07T03:14:01;11.90;99.90
20483;DHT22;10400;53.198;6.592;2023-05-07T03:16:27;11.90;99.90
20483;DHT22;10400;53.198;6.592;2023-05-07T03:18:52;11.90;99.90
20483;DHT22;10400;53.198;6.592;2023-05-07T03:21:18;12.00;99.90
20483;DHT22;10400;53.198;6.592;2023-05-07T03:23:44;11.90;99.90
20483;DHT22;10400;53.198;6.592;2023-05-07T03:26:09;12.00;99.90
20483;DHT22;10400;53.198;6.592;2023-05-07T03:28:36;11.90;99.90
20483;DHT22;10400;53.198;6.592;2023-05-07T03:31:01;11.90;99.90
20483;DHT22;10400;53.198;6.592;2023-05-07T03:33:27;11.90;99.90
20483;DHT22;10400;53.198;6.592;2023-05-07T03:35:53;11.80;99.90
20483;DHT22;10400;53.198;6.592;2023-05-07T03:38:18;11.80;99.90
20483;DHT22;10400;53.198;6.592;2023-05-07T03:40:44;11.80;99.90
20483;DHT22;10400;53.198;6.592;2023-05-07T03:43:10;11.70;99.90
20483;DHT22;10400;53.198;6.592;2023-05-07T03:45:35;11.80;99.90
20483;DHT22;10400;53.198;6.592;2023-05-07T03:48:01;11.80;99.90
20483;DHT22;10400;53.198;6.592;2023-05-07T03:50:27;11.70;99.90
20483;DHT22;10400;53.198;6.592;2023-05-07T03:52:52;11.70;99.90
20483;DHT22;10400;53.198;6.592;2023-05-07T03:55:18;11.60;99.90
20483;DHT22;10400;53.198;6.592;2023-05-07T03:57:44;11.60;99.90
20483;DHT22;10400;53.198;6.592;2023-05-07T04:00:10;11.60;99.90
20483;DHT22;10400;53.198;6.592;2023-05-07T04:02:35;11.50;99.90
20483;DHT22;10400;53.198;6.592;2023-05-07T04:05:01;11.60;99.90
20483;DHT22;10400;53.198;6.592;2023-05-07T04:07:27;11.50;99.90
20483;DHT22;10400;53.198;6.592;2023-05-07T04:09:52;11.50;99.90
20483;DHT22;10400;53.198;6.592;2023-05-07T04:12:18;11.50;99.90
20483;DHT22;10400;53.198;6.592;2023-05-07T04:14:44;11.50;99.90
20483;DHT22;10400;53.198;6.592;2023-05-07T04:17:10;11.50;99.90
20483;DHT22;10400;53.198;6.592;2023-05-07T04:19:36;11.50;99.90
20483;DHT22;10400;53.198;6.592;2023-05-07T04:22:01;11.50;99.90
20483;DHT22;10400;53.198;6.592;2023-05-07T04:24:27;11.60;99.90
20483;DHT22;10400;53.198;6.592;2023-05-07T04:26:56;11.60;99.90
20483;DHT22;10400;53.198;6.592;2023-05-07T04:29:21;11.60;99.90
20483;DHT22;10400;53.198;6.592;2023-05-07T04:31:47;11.60;99.90
20483;DHT22;10400;53.198;6.592;2023-05-07T04:34:13;11.60;99.90
20483;DHT22;10400;53.198;6.592;2023-05-07T04:36:39;11.60;99.90
20483;DHT22;10400;53.198;6.592;2023-05-07T04:39:05;11.50;99.90
20483;DHT22;10400;53.198;6.592;2023-05-07T04:41:31;11.50;99.90
20483;DHT22;10400;53.198;6.592;2023-05-07T04:43:57;11.40;99.90
20483;DHT22;10400;53.198;6.592;2023-05-07T04:46:24;11.40;99.90
20483;DHT22;10400;53.198;6.592;2023-05-07T04:48:50;11.40;99.90
20483;DHT22;10400;53.198;6.592;2023-05-07T04:51:15;11.40;99.90
20483;DHT22;10400;53.198;6.592;2023-05-07T04:53:41;11.40;99.90
20483;DHT22;10400;53.198;6.592;2023-05-07T04:56:08;11.30;99.90
20483;DHT22;10400;53.198;6.592;2023-05-07T04:58:34;11.40;99.90
20483;DHT22;10400;53.198;6.592;2023-05-07T05:01:00;11.30;99.90
20483;DHT22;10400;53.198;6.592;2023-05-07T05:03:25;11.40;99.90
20483;DHT22;10400;53.198;6.592;2023-05-07T05:05:52;11.40;99.90
20483;DHT22;10400;53.198;6.592;2023-05-07T05:08:18;11.40;99.90
20483;DHT22;10400;53.198;6.592;2023-05-07T05:10:44;11.30;99.90
20483;DHT22;10400;53.198;6.592;2023-05-07T05:13:10;11.30;99.90
20483;DHT22;10400;53.198;6.592;2023-05-07T05:15:38;11.30;99.90
20483;DHT22;10400;53.198;6.592;2023-05-07T05:18:04;11.30;99.90
20483;DHT22;10400;53.198;6.592;2023-05-07T05:20:29;11.30;99.90
20483;DHT22;10400;53.198;6.592;2023-05-07T05:22:55;11.40;99.90
20483;DHT22;10400;53.198;6.592;2023-05-07T05:25:21;11.40;99.90
20483;DHT22;10400;53.198;6.592;2023-05-07T05:27:46;11.40;99.90
20483;DHT22;10400;53.198;6.592;2023-05-07T05:30:12;11.40;99.90
20483;DHT22;10400;53.198;6.592;2023-05-07T05:32:38;11.40;99.90
20483;DHT22;10400;53.198;6.592;2023-05-07T05:35:04;11.40;99.90
20483;DHT22;10400;53.198;6.592;2023-05-07T05:37:30;11.40;99.90
20483;DHT22;10400;53.198;6.592;2023-05-07T05:39:56;11.40;99.90
20483;DHT22;10400;53.198;6.592;2023-05-07T05:42:22;11.40;99.90
20483;DHT22;10400;53.198;6.592;2023-05-07T05:44:48;11.40;99.90
20483;DHT22;10400;53.198;6.592;2023-05-07T05:47:14;11.40;99.90
20483;DHT22;10400;53.198;6.592;2023-05-07T05:49:39;11.40;99.90
20483;DHT22;10400;53.198;6.592;2023-05-07T05:52:05;11.40;99.90
20483;DHT22;10400;53.198;6.592;2023-05-07T05:54:30;11.40;99.90
20483;DHT22;10400;53.198;6.592;2023-05-07T05:56:56;11.40;99.90
20483;DHT22;10400;53.198;6.592;2023-05-07T05:59:22;11.40;99.90
20483;DHT22;10400;53.198;6.592;2023-05-07T06:01:48;11.50;99.90
20483;DHT22;10400;53.198;6.592;2023-05-07T06:04:13;11.50;99.90
20483;DHT22;10400;53.198;6.592;2023-05-07T06:06:39;11.50;99.90
20483;DHT22;10400;53.198;6.592;2023-05-07T06:09:05;11.50;99.90
20483;DHT22;10400;53.198;6.592;2023-05-07T06:11:31;11.40;99.90
20483;DHT22;10400;53.198;6.592;2023-05-07T06:13:57;11.40;99.90
20483;DHT22;10400;53.198;6.592;2023-05-07T06:16:24;11.50;99.90
20483;DHT22;10400;53.198;6.592;2023-05-07T06:18:49;11.50;99.90
20483;DHT22;10400;53.198;6.592;2023-05-07T06:21:15;11.50;99.90
20483;DHT22;10400;53.198;6.592;2023-05-07T06:23:41;11.50;99.90
20483;DHT22;10400;53.198;6.592;2023-05-07T06:26:07;11.50;99.90
20483;DHT22;10400;53.198;6.592;2023-05-07T06:28:32;11.50;99.90
20483;DHT22;10400;53.198;6.592;2023-05-07T06:31:18;11.60;99.90
20483;DHT22;10400;53.198;6.592;2023-05-07T06:33:47;11.50;99.90
20483;DHT22;10400;53.198;6.592;2023-05-07T06:36:13;11.50;99.90
20483;DHT22;10400;53.198;6.592;2023-05-07T06:38:38;11.60;99.90
20483;DHT22;10400;53.198;6.592;2023-05-07T06:41:06;11.50;99.90
20483;DHT22;10400;53.198;6.592;2023-05-07T06:43:32;11.50;99.90
20483;DHT22;10400;53.198;6.592;2023-05-07T06:45:57;11.60;99.90
20483;DHT22;10400;53.198;6.592;2023-05-07T06:48:23;11.60;99.90
20483;DHT22;10400;53.198;6.592;2023-05-07T06:50:50;11.60;99.90
20483;DHT22;10400;53.198;6.592;2023-05-07T06:53:15;11.60;99.90
20483;DHT22;10400;53.198;6.592;2023-05-07T06:55:41;11.70;99.90
20483;DHT22;10400;53.198;6.592;2023-05-07T06:58:07;11.70;99.90
20483;DHT22;10400;53.198;6.592;2023-05-07T07:00:32;11.70;99.90
20483;DHT22;10400;53.198;6.592;2023-05-07T07:02:58;11.70;99.90
20483;DHT22;10400;53.198;6.592;2023-05-07T07:05:25;11.80;99.90
20483;DHT22;10400;53.198;6.592;2023-05-07T07:07:51;11.80;99.90
20483;DHT22;10400;53.198;6.592;2023-05-07T07:10:20;11.80;99.90
20483;DHT22;10400;53.198;6.592;2023-05-07T07:12:46;11.80;99.90
20483;DHT22;10400;53.198;6.592;2023-05-07T07:15:13;11.70;99.90
20483;DHT22;10400;53.198;6.592;2023-05-07T07:17:39;11.70;99.90
20483;DHT22;10400;53.198;6.592;2023-05-07T07:20:05;11.70;99.90
20483;DHT22;10400;53.198;6.592;2023-05-07T07:22:31;11.70;99.90
20483;DHT22;10400;53.198;6.592;2023-05-07T07:24:56;11.70;99.90
20483;DHT22;10400;53.198;6.592;2023-05-07T07:27:22;11.70;99.90
20483;DHT22;10400;53.198;6.592;2023-05-07T07:29:48;11.70;99.90
20483;DHT22;10400;53.198;6.592;2023-05-07T07:32:13;11.80;99.90
20483;DHT22;10400;53.198;6.592;2023-05-07T07:34:39;11.80;99.90
20483;DHT22;10400;53.198;6.592;2023-05-07T07:37:05;11.80;99.90
20483;DHT22;10400;53.198;6.592;2023-05-07T07:39:35;11.90;99.90
20483;DHT22;10400;53.198;6.592;2023-05-07T07:42:03;11.90;99.90
20483;DHT22;10400;53.198;6.592;2023-05-07T07:44:28;11.90;99.90
20483;DHT22;10400;53.198;6.592;2023-05-07T07:46:54;11.90;99.90
20483;DHT22;10400;53.198;6.592;2023-05-07T07:49:19;12.00;99.90
20483;DHT22;10400;53.198;6.592;2023-05-07T07:51:45;11.90;99.90
20483;DHT22;10400;53.198;6.592;2023-05-07T07:54:11;12.00;99.90
20483;DHT22;10400;53.198;6.592;2023-05-07T07:56:37;12.10;99.90
20483;DHT22;10400;53.198;6.592;2023-05-07T07:59:03;12.10;99.90
20483;DHT22;10400;53.198;6.592;2023-05-07T08:01:32;12.20;99.90
20483;DHT22;10400;53.198;6.592;2023-05-07T08:03:58;12.40;99.90
20483;DHT22;10400;53.198;6.592;2023-05-07T08:06:24;12.40;99.90
20483;DHT22;10400;53.198;6.592;2023-05-07T08:08:51;12.50;99.90
20483;DHT22;10400;53.198;6.592;2023-05-07T08:11:17;12.60;99.90
20483;DHT22;10400;53.198;6.592;2023-05-07T08:13:43;12.60;99.90
20483;DHT22;10400;53.198;6.592;2023-05-07T08:16:08;12.60;99.90
20483;DHT22;10400;53.198;6.592;2023-05-07T08:18:34;12.60;99.90
20483;DHT22;10400;53.198;6.592;2023-05-07T08:21:00;12.60;99.90
20483;DHT22;10400;53.198;6.592;2023-05-07T08:23:26;12.60;99.90
20483;DHT22;10400;53.198;6.592;2023-05-07T08:25:52;12.60;99.90
20483;DHT22;10400;53.198;6.592;2023-05-07T08:28:18;12.50;99.90
20483;DHT22;10400;53.198;6.592;2023-05-07T08:30:45;12.60;99.90
20483;DHT22;10400;53.198;6.592;2023-05-07T08:33:10;12.60;99.90
20483;DHT22;10400;53.198;6.592;2023-05-07T08:35:36;12.70;99.90
20483;DHT22;10400;53.198;6.592;2023-05-07T08:38:02;12.80;99.90
20483;DHT22;10400;53.198;6.592;2023-05-07T08:40:28;12.90;99.90
20483;DHT22;10400;53.198;6.592;2023-05-07T08:42:55;12.90;99.90
20483;DHT22;10400;53.198;6.592;2023-05-07T08:45:22;12.90;99.90
20483;DHT22;10400;53.198;6.592;2023-05-07T08:47:56;13.10;99.90
20483;DHT22;10400;53.198;6.592;2023-05-07T08:50:23;13.20;99.90
20483;DHT22;10400;53.198;6.592;2023-05-07T08:52:49;13.20;99.90
20483;DHT22;10400;53.198;6.592;2023-05-07T08:55:15;13.20;99.90
20483;DHT22;10400;53.198;6.592;2023-05-07T08:57:40;13.10;99.90
20483;DHT22;10400;53.198;6.592;2023-05-07T09:00:06;13.20;99.90
20483;DHT22;10400;53.198;6.592;2023-05-07T09:02:33;13.20;99.90
20483;DHT22;10400;53.198;6.592;2023-05-07T09:05:00;13.20;99.90
20483;DHT22;10400;53.198;6.592;2023-05-07T09:07:25;13.20;99.90
20483;DHT22;10400;53.198;6.592;2023-05-07T09:09:52;13.30;99.90
20483;DHT22;10400;53.198;6.592;2023-05-07T09:12:18;13.30;99.90
20483;DHT22;10400;53.198;6.592;2023-05-07T09:14:45;13.50;99.90
20483;DHT22;10400;53.198;6.592;2023-05-07T09:17:11;13.60;99.90
20483;DHT22;10400;53.198;6.592;2023-05-07T09:19:36;13.70;99.90
20483;DHT22;10400;53.198;6.592;2023-05-07T09:22:04;13.80;99.90
20483;DHT22;10400;53.198;6.592;2023-05-07T09:24:30;13.90;99.90
20483;DHT22;10400;53.198;6.592;2023-05-07T09:27:01;14.00;99.90
20483;DHT22;10400;53.198;6.592;2023-05-07T09:29:28;14.00;99.90
20483;DHT22;10400;53.198;6.592;2023-05-07T09:31:55;14.10;99.90
20483;DHT22;10400;53.198;6.592;2023-05-07T09:34:21;14.20;99.90
20483;DHT22;10400;53.198;6.592;2023-05-07T09:36:47;14.40;99.90
20483;DHT22;10400;53.198;6.592;2023-05-07T09:39:13;14.40;99.90
20483;DHT22;10400;53.198;6.592;2023-05-07T09:41:49;14.40;99.90
20483;DHT22;10400;53.198;6.592;2023-05-07T09:44:20;14.60;99.90
20483;DHT22;10400;53.198;6.592;2023-05-07T09:46:50;14.60;99.90
20483;DHT22;10400;53.198;6.592;2023-05-07T09:49:23;14.50;99.90
20483;DHT22;10400;53.198;6.592;2023-05-07T09:51:51;14.50;98.40
20483;DHT22;10400;53.198;6.592;2023-05-07T09:54:17;14.60;96.80
20483;DHT22;10400;53.198;6.592;2023-05-07T09:56:44;14.60;94.80
20483;DHT22;10400;53.198;6.592;2023-05-07T09:59:13;14.60;99.40
20483;DHT22;10400;53.198;6.592;2023-05-07T10:01:41;14.60;99.10
20483;DHT22;10400;53.198;6.592;2023-05-07T10:04:07;14.80;97.50
20483;DHT22;10400;53.198;6.592;2023-05-07T10:06:37;14.80;85.10
20483;DHT22;10400;53.198;6.592;2023-05-07T10:09:05;14.90;95.10
20483;DHT22;10400;53.198;6.592;2023-05-07T10:11:34;15.00;89.10
20483;DHT22;10400;53.198;6.592;2023-05-07T10:14:01;15.10;64.40
20483;DHT22;10400;53.198;6.592;2023-05-07T10:16:30;15.10;50.60
20483;DHT22;10400;53.198;6.592;2023-05-07T10:18:58;15.10;48.40
20483;DHT22;10400;53.198;6.592;2023-05-07T10:21:27;15.20;45.80
20483;DHT22;10400;53.198;6.592;2023-05-07T10:24:17;15.20;36.80
20483;DHT22;10400;53.198;6.592;2023-05-07T10:26:51;15.10;32.40
20483;DHT22;10400;53.198;6.592;2023-05-07T10:34:24;15.20;23.30
20483;DHT22;10400;53.198;6.592;2023-05-07T10:36:52;15.20;29.70
20483;DHT22;10400;53.198;6.592;2023-05-07T10:39:19;15.30;29.60
20483;DHT22;10400;53.198;6.592;2023-05-07T10:41:46;15.30;24.60
20483;DHT22;10400;53.198;6.592;2023-05-07T10:44:25;15.40;28.70
20483;DHT22;10400;53.198;6.592;2023-05-07T10:47:08;15.50;33.20
20483;DHT22;10400;53.198;6.592;2023-05-07T10:52:18;15.70;1.00
20483;DHT22;10400;53.198;6.592;2023-05-07T10:54:44;15.80;1.00
20483;DHT22;10400;53.198;6.592;2023-05-07T10:57:35;15.90;1.00
20483;DHT22;10400;53.198;6.592;2023-05-07T11:00:02;16.00;1.00
20483;DHT22;10400;53.198;6.592;2023-05-07T11:05:31;16.40;1.00
20483;DHT22;10400;53.198;6.592;2023-05-07T11:08:01;16.60;1.00
20483;DHT22;10400;53.198;6.592;2023-05-07T11:13:16;16.60;1.00
20483;DHT22;10400;53.198;6.592;2023-05-07T11:15:43;16.50;1.00
20483;DHT22;10400;53.198;6.592;2023-05-07T11:18:11;16.70;1.00
20483;DHT22;10400;53.198;6.592;2023-05-07T11:20:56;16.70;1.00
20483;DHT22;10400;53.198;6.592;2023-05-07T11:26:05;17.00;1.00
20483;DHT22;10400;53.198;6.592;2023-05-07T11:28:38;17.00;1.00
20483;DHT22;10400;53.198;6.592;2023-05-07T11:31:04;17.00;1.00
20483;DHT22;10400;53.198;6.592;2023-05-07T11:33:30;17.20;1.00
20483;DHT22;10400;53.198;6.592;2023-05-07T11:35:57;17.20;1.00
20483;DHT22;10400;53.198;6.592;2023-05-07T11:38:23;17.20;1.00
20483;DHT22;10400;53.198;6.592;2023-05-07T11:40:55;17.40;1.00
20483;DHT22;10400;53.198;6.592;2023-05-07T11:43:21;17.60;1.00
20483;DHT22;10400;53.198;6.592;2023-05-07T11:45:47;17.50;1.00
20483;DHT22;10400;53.198;6.592;2023-05-07T11:48:14;17.40;1.00
20483;DHT22;10400;53.198;6.592;2023-05-07T11:51:00;17.50;1.00
20483;DHT22;10400;53.198;6.592;2023-05-07T11:53:27;17.70;1.00
20483;DHT22;10400;53.198;6.592;2023-05-07T11:55:56;17.90;1.00
20483;DHT22;10400;53.198;6.592;2023-05-07T11:58:23;17.80;1.00
20483;DHT22;10400;53.198;6.592;2023-05-07T12:00:50;17.90;1.00
20483;DHT22;10400;53.198;6.592;2023-05-07T12:03:16;17.90;1.00
20483;DHT22;10400;53.198;6.592;2023-05-07T12:05:41;17.90;1.00
20483;DHT22;10400;53.198;6.592;2023-05-07T12:08:08;17.90;1.00
20483;DHT22;10400;53.198;6.592;2023-05-07T12:10:33;18.10;1.00
20483;DHT22;10400;53.198;6.592;2023-05-07T12:12:59;18.00;1.00
20483;DHT22;10400;53.198;6.592;2023-05-07T12:15:24;18.20;1.00
20483;DHT22;10400;53.198;6.592;2023-05-07T12:17:50;18.30;1.00
20483;DHT22;10400;53.198;6.592;2023-05-07T12:20:18;18.40;1.00
20483;DHT22;10400;53.198;6.592;2023-05-07T12:22:44;18.60;1.00
20483;DHT22;10400;53.198;6.592;2023-05-07T12:25:10;18.60;1.00
20483;DHT22;10400;53.198;6.592;2023-05-07T12:27:37;18.60;99.90
20483;DHT22;10400;53.198;6.592;2023-05-07T12:30:04;18.30;99.90
20483;DHT22;10400;53.198;6.592;2023-05-07T12:32:31;18.00;1.00
20483;DHT22;10400;53.198;6.592;2023-05-07T12:35:01;17.90;1.00
20483;DHT22;10400;53.198;6.592;2023-05-07T12:37:27;17.90;1.00
20483;DHT22;10400;53.198;6.592;2023-05-07T12:40:07;17.90;1.00
20483;DHT22;10400;53.198;6.592;2023-05-07T12:42:35;17.80;1.00
20483;DHT22;10400;53.198;6.592;2023-05-07T12:45:08;18.00;1.00
20483;DHT22;10400;53.198;6.592;2023-05-07T12:47:34;18.30;1.00
20483;DHT22;10400;53.198;6.592;2023-05-07T12:49:59;18.50;1.00
20483;DHT22;10400;53.198;6.592;2023-05-07T12:52:25;18.60;1.00
20483;DHT22;10400;53.198;6.592;2023-05-07T12:54:51;18.90;99.90
20483;DHT22;10400;53.198;6.592;2023-05-07T12:57:19;19.00;99.90
20483;DHT22;10400;53.198;6.592;2023-05-07T12:59:46;19.00;1.00
20483;DHT22;10400;53.198;6.592;2023-05-07T13:02:12;19.10;99.90
20483;DHT22;10400;53.198;6.592;2023-05-07T13:04:37;19.30;99.90
20483;DHT22;10400;53.198;6.592;2023-05-07T13:07:03;19.20;1.00
20483;DHT22;10400;53.198;6.592;2023-05-07T13:09:29;19.20;59.20
20483;DHT22;10400;53.198;6.592;2023-05-07T13:11:57;19.30;1.00
20483;DHT22;10400;53.198;6.592;2023-05-07T13:14:26;19.30;1.00
20483;DHT22;10400;53.198;6.592;2023-05-07T13:16:52;19.30;1.00
20483;DHT22;10400;53.198;6.592;2023-05-07T13:19:17;19.30;1.00
20483;DHT22;10400;53.198;6.592;2023-05-07T13:21:43;19.30;1.00
20483;DHT22;10400;53.198;6.592;2023-05-07T13:24:09;19.50;1.00
20483;DHT22;10400;53.198;6.592;2023-05-07T13:26:34;19.60;99.90
20483;DHT22;10400;53.198;6.592;2023-05-07T13:29:00;19.70;3.10
20483;DHT22;10400;53.198;6.592;2023-05-07T13:31:26;19.80;99.90
20483;DHT22;10400;53.198;6.592;2023-05-07T13:33:51;19.80;99.90
20483;DHT22;10400;53.198;6.592;2023-05-07T13:36:18;19.80;1.00
20483;DHT22;10400;53.198;6.592;2023-05-07T13:38:43;20.10;99.90
20483;DHT22;10400;53.198;6.592;2023-05-07T13:41:09;20.20;1.00
20483;DHT22;10400;53.198;6.592;2023-05-07T13:43:35;20.20;99.90
20483;DHT22;10400;53.198;6.592;2023-05-07T13:46:00;20.20;1.00
20483;DHT22;10400;53.198;6.592;2023-05-07T13:48:26;20.10;71.00
20483;DHT22;10400;53.198;6.592;2023-05-07T13:50:53;20.20;99.90
20483;DHT22;10400;53.198;6.592;2023-05-07T13:53:19;20.20;99.90
20483;DHT22;10400;53.198;6.592;2023-05-07T13:55:45;20.20;99.90
20483;DHT22;10400;53.198;6.592;2023-05-07T13:58:11;20.30;99.90
20483;DHT22;10400;53.198;6.592;2023-05-07T14:00:36;20.20;1.00
20483;DHT22;10400;53.198;6.592;2023-05-07T14:03:04;20.20;1.00
20483;DHT22;10400;53.198;6.592;2023-05-07T14:05:30;20.30;1.00
20483;DHT22;10400;53.198;6.592;2023-05-07T14:07:57;20.30;1.00
20483;DHT22;10400;53.198;6.592;2023-05-07T14:10:23;20.30;1.00
20483;DHT22;10400;53.198;6.592;2023-05-07T14:12:48;20.20;99.90
20483;DHT22;10400;53.198;6.592;2023-05-07T14:15:15;20.40;1.00
20483;DHT22;10400;53.198;6.592;2023-05-07T14:17:41;20.30;1.00
20483;DHT22;10400;53.198;6.592;2023-05-07T14:20:08;20.20;99.90
20483;DHT22;10400;53.198;6.592;2023-05-07T14:22:34;20.30;1.00
20483;DHT22;10400;53.198;6.592;2023-05-07T14:24:59;20.30;1.00
20483;DHT22;10400;53.198;6.592;2023-05-07T14:27:25;20.50;1.00
20483;DHT22;10400;53.198;6.592;2023-05-07T14:29:51;20.60;1.00
20483;DHT22;10400;53.198;6.592;2023-05-07T14:32:20;20.40;99.90
20483;DHT22;10400;53.198;6.592;2023-05-07T14:34:46;20.60;99.90
20483;DHT22;10400;53.198;6.592;2023-05-07T14:37:12;20.70;1.00
20483;DHT22;10400;53.198;6.592;2023-05-07T14:39:38;20.60;1.00
20483;DHT22;10400;53.198;6.592;2023-05-07T14:42:04;20.60;1.00
20483;DHT22;10400;53.198;6.592;2023-05-07T14:44:29;20.60;1.00
20483;DHT22;10400;53.198;6.592;2023-05-07T14:46:56;20.60;1.00
20483;DHT22;10400;53.198;6.592;2023-05-07T14:49:22;20.60;99.90
20483;DHT22;10400;53.198;6.592;2023-05-07T14:51:47;20.60;1.00
20483;DHT22;10400;53.198;6.592;2023-05-07T14:54:14;20.30;99.90
20483;DHT22;10400;53.198;6.592;2023-05-07T14:56:40;20.20;99.90
20483;DHT22;10400;53.198;6.592;2023-05-07T14:59:06;20.20;99.90
20483;DHT22;10400;53.198;6.592;2023-05-07T15:01:32;20.20;99.90
20483;DHT22;10400;53.198;6.592;2023-05-07T15:03:59;20.20;1.00
20483;DHT22;10400;53.198;6.592;2023-05-07T15:06:25;20.30;99.90
20483;DHT22;10400;53.198;6.592;2023-05-07T15:08:52;20.40;1.00
20483;DHT22;10400;53.198;6.592;2023-05-07T15:11:17;20.40;1.00
20483;DHT22;10400;53.198;6.592;2023-05-07T15:13:44;20.30;33.30
20483;DHT22;10400;53.198;6.592;2023-05-07T15:16:10;20.20;44.80
20483;DHT22;10400;53.198;6.592;2023-05-07T15:18:35;20.20;99.90
20483;DHT22;10400;53.198;6.592;2023-05-07T15:21:01;20.20;1.00
20483;DHT22;10400;53.198;6.592;2023-05-07T15:23:27;20.10;1.00
20483;DHT22;10400;53.198;6.592;2023-05-07T15:25:53;20.00;1.00
20483;DHT22;10400;53.198;6.592;2023-05-07T15:28:19;20.00;99.90
20483;DHT22;10400;53.198;6.592;2023-05-07T15:30:45;20.00;2.20
20483;DHT22;10400;53.198;6.592;2023-05-07T15:33:10;19.90;99.90
20483;DHT22;10400;53.198;6.592;2023-05-07T15:35:36;20.00;99.90
20483;DHT22;10400;53.198;6.592;2023-05-07T15:38:02;20.10;1.00
20483;DHT22;10400;53.198;6.592;2023-05-07T15:40:29;20.20;85.30
20483;DHT22;10400;53.198;6.592;2023-05-07T15:42:55;20.20;15.40
20483;DHT22;10400;53.198;6.592;2023-05-07T15:45:22;20.30;1.00
20483;DHT22;10400;53.198;6.592;2023-05-07T15:47:48;20.30;1.00
20483;DHT22;10400;53.198;6.592;2023-05-07T15:50:13;20.50;1.00
20483;DHT22;10400;53.198;6.592;2023-05-07T15:52:39;20.70;1.00
20483;DHT22;10400;53.198;6.592;2023-05-07T15:55:06;20.80;1.00
20483;DHT22;10400;53.198;6.592;2023-05-07T15:57:33;20.90;1.00
20483;DHT22;10400;53.198;6.592;2023-05-07T15:59:59;21.00;99.90
20483;DHT22;10400;53.198;6.592;2023-05-07T16:02:25;20.80;99.90
20483;DHT22;10400;53.198;6.592;2023-05-07T16:04:51;20.80;1.00
20483;DHT22;10400;53.198;6.592;2023-05-07T16:07:16;20.90;97.80
20483;DHT22;10400;53.198;6.592;2023-05-07T16:09:44;20.90;1.00
20483;DHT22;10400;53.198;6.592;2023-05-07T16:12:09;21.00;1.00
20483;DHT22;10400;53.198;6.592;2023-05-07T16:14:36;20.90;1.00
20483;DHT22;10400;53.198;6.592;2023-05-07T16:17:02;20.90;99.90